createdAt,value
2022-12-05T00:00:33.124Z,6.90
2022-12-05T00:03:44.423Z,7.10
2022-12-05T00:06:47.437Z,6.22
2022-12-05T00:09:50.971Z,5.80
2022-12-05T00:12:53.713Z,6.12
2022-12-05T00:15:56.518Z,6.05
2022-12-05T00:19:00.901Z,5.45
2022-12-05T00:22:03.639Z,5.97
2022-12-05T00:25:07.552Z,5.78
2022-12-05T00:28:12.966Z,6.62
2022-12-05T00:31:20.392Z,6.12
2022-12-05T00:34:23.787Z,6.90
2022-12-05T00:37:26.574Z,6.03
2022-12-05T00:40:29.330Z,5.62
2022-12-05T00:43:32.955Z,7.43
2022-12-05T00:46:36.631Z,6.40
2022-12-05T00:49:39.483Z,6.37
2022-12-05T00:52:42.207Z,6.95
2022-12-05T00:55:45.047Z,6.93
2022-12-05T00:58:48.353Z,7.15
2022-12-05T01:01:52.155Z,5.65
2022-12-05T01:04:55.084Z,6.22
2022-12-05T01:07:57.900Z,6.68
2022-12-05T01:11:00.989Z,6.20
2022-12-05T01:14:03.985Z,6.75
2022-12-05T01:17:06.848Z,7.32
2022-12-05T01:20:10.164Z,6.85
2022-12-05T01:23:13.079Z,8.55
2022-12-05T01:26:17.809Z,9.27
2022-12-05T01:29:23.173Z,7.72
2022-12-05T01:32:26.073Z,7.53
2022-12-05T01:35:32.447Z,6.75
2022-12-05T01:38:35.163Z,5.87
2022-12-05T01:41:44.318Z,6.67
2022-12-05T01:44:49.981Z,6.80
2022-12-05T01:47:52.874Z,6.20
2022-12-05T01:50:55.773Z,5.93
2022-12-05T01:53:59.033Z,5.87
2022-12-05T02:00:12.880Z,5.75
2022-12-05T02:03:21.128Z,6.30
2022-12-05T02:06:24.906Z,6.50
2022-12-05T02:09:27.963Z,6.57
2022-12-05T02:12:30.518Z,6.43
2022-12-05T02:15:56.916Z,7.60
2022-12-05T02:19:08.839Z,7.05
2022-12-05T02:22:26.966Z,7.78
2022-12-05T02:26:10.742Z,7.50
2022-12-05T02:30:04.964Z,7.12
2022-12-05T02:33:22.746Z,7.57
2022-12-05T02:36:45.734Z,7.28
2022-12-05T02:40:10.810Z,7.00
2022-12-05T02:43:20.514Z,6.80
2022-12-05T02:46:26.303Z,6.90
2022-12-05T02:49:33.536Z,6.22
2022-12-05T02:52:36.886Z,7.82
2022-12-05T02:55:41.907Z,6.80
2022-12-05T02:58:54.382Z,7.37
2022-12-05T03:01:57.419Z,6.55
2022-12-05T03:05:19.903Z,7.37
2022-12-05T03:08:28.120Z,6.83
2022-12-05T03:11:37.976Z,7.50
2022-12-05T03:14:48.912Z,7.57
2022-12-05T03:18:04.618Z,6.97
2022-12-05T03:21:28.125Z,7.37
2022-12-05T03:24:31.763Z,7.25
2022-12-05T03:27:45.281Z,8.30
2022-12-05T03:30:52.772Z,7.25
2022-12-05T03:33:59.487Z,8.15
2022-12-05T03:37:09.510Z,7.65
2022-12-05T03:40:35.122Z,8.27
2022-12-05T03:43:53.013Z,7.65
2022-12-05T03:46:59.906Z,8.32
2022-12-05T03:50:20.074Z,8.32
2022-12-05T03:53:28.646Z,7.70
2022-12-05T03:56:38.749Z,7.85
2022-12-05T03:59:50.119Z,7.50
2022-12-05T04:02:58.061Z,7.20
2022-12-05T04:06:04.090Z,7.78
2022-12-05T04:09:17.502Z,7.53
2022-12-05T04:12:28.525Z,7.40
2022-12-05T04:15:52.118Z,8.63
2022-12-05T04:19:06.680Z,8.60
2022-12-05T04:22:09.236Z,8.13
2022-12-05T04:25:33.377Z,7.40
2022-12-05T04:28:49.549Z,8.43
2022-12-05T04:31:58.540Z,7.55
2022-12-05T04:35:07.481Z,8.57
2022-12-05T04:38:20.354Z,7.57
2022-12-05T04:41:27.159Z,9.18
2022-12-05T04:44:36.679Z,8.15
2022-12-05T04:47:43.736Z,7.60
2022-12-05T04:50:49.626Z,7.12
2022-12-05T04:54:00.818Z,7.95
2022-12-05T04:57:15.325Z,8.88
2022-12-05T05:00:18.179Z,8.38
2022-12-05T05:03:43.565Z,10.00
2022-12-05T05:06:46.120Z,8.65
2022-12-05T05:09:49.221Z,13.88
2022-12-05T05:12:51.727Z,9.00
2022-12-05T05:15:54.827Z,8.13
2022-12-05T05:18:57.568Z,9.50
2022-12-05T05:22:00.727Z,8.88
2022-12-05T05:25:03.358Z,8.27
2022-12-05T05:28:06.461Z,8.10
2022-12-05T05:31:09.179Z,7.70
2022-12-05T05:34:12.692Z,7.60
2022-12-05T05:37:15.116Z,8.20
2022-12-05T05:40:19.033Z,7.82
2022-12-05T05:43:21.587Z,8.82
2022-12-05T05:46:28.651Z,8.15
2022-12-05T05:49:31.151Z,8.30
2022-12-05T05:52:36.375Z,8.45
2022-12-05T05:55:42.360Z,9.20
2022-12-05T05:58:45.825Z,9.18
2022-12-05T06:01:48.299Z,8.82
2022-12-05T06:04:51.344Z,8.30
2022-12-05T06:07:53.799Z,8.75
2022-12-05T06:10:57.180Z,10.02
2022-12-05T06:14:03.432Z,9.77
2022-12-05T06:17:06.479Z,9.10
2022-12-05T06:20:09.740Z,10.27
2022-12-05T06:23:12.833Z,9.10
2022-12-05T06:26:18.078Z,8.97
2022-12-05T06:29:25.333Z,9.43
2022-12-05T06:32:29.509Z,9.73
2022-12-05T06:35:32.515Z,10.18
2022-12-05T06:38:39.021Z,9.95
2022-12-05T06:41:44.764Z,9.32
2022-12-05T06:44:47.184Z,9.48
2022-12-05T06:47:51.921Z,10.00
2022-12-05T06:50:54.473Z,9.32
2022-12-05T06:53:58.307Z,9.48
2022-12-05T06:57:00.796Z,9.50
2022-12-05T07:00:23.558Z,10.88
2022-12-05T07:03:26.143Z,9.95
2022-12-05T07:06:29.551Z,10.75
2022-12-05T07:09:48.499Z,9.88
2022-12-05T07:12:51.555Z,9.98
2022-12-05T07:15:54.006Z,9.10
2022-12-05T07:18:57.467Z,10.10
2022-12-05T07:21:59.957Z,8.75
2022-12-05T07:25:03.906Z,9.35
2022-12-05T07:34:14.279Z,9.80
2022-12-05T07:40:19.593Z,9.05
2022-12-05T07:43:23.451Z,11.20
2022-12-05T07:46:27.979Z,9.95
2022-12-05T07:49:31.113Z,9.75
2022-12-05T07:52:34.034Z,9.88
2022-12-05T07:55:38.281Z,10.48
2022-12-05T07:58:40.805Z,9.25
2022-12-05T08:01:44.028Z,10.43
2022-12-05T08:04:46.899Z,10.38
2022-12-05T08:07:49.792Z,9.90
2022-12-05T08:10:52.789Z,9.50
2022-12-05T08:13:56.524Z,9.05
2022-12-05T08:16:59.469Z,9.50
2022-12-05T08:20:02.643Z,9.23
2022-12-05T08:23:05.469Z,9.95
2022-12-05T08:26:11.359Z,9.43
2022-12-05T08:29:16.451Z,9.75
2022-12-05T08:32:19.372Z,9.70
2022-12-05T08:35:22.139Z,10.52
2022-12-05T08:38:24.981Z,10.13
2022-12-05T08:41:31.212Z,9.88
2022-12-05T08:44:34.350Z,9.10
2022-12-05T08:47:37.378Z,10.10
2022-12-05T08:50:40.179Z,9.60
2022-12-05T08:53:44.842Z,9.73
2022-12-05T08:56:51.595Z,10.40
2022-12-05T08:59:54.555Z,10.35
2022-12-05T09:02:58.169Z,10.32
2022-12-05T09:06:10.033Z,10.27
2022-12-05T09:09:13.896Z,10.93
2022-12-05T09:12:17.195Z,10.45
2022-12-05T09:15:20.318Z,9.93
2022-12-05T09:18:23.078Z,9.52
2022-12-05T09:21:28.766Z,8.90
2022-12-05T09:24:31.872Z,11.02
2022-12-05T09:27:34.786Z,10.88
2022-12-05T09:30:37.874Z,10.38
2022-12-05T09:33:41.623Z,10.15
2022-12-05T09:36:44.413Z,10.60
2022-12-05T09:39:47.332Z,10.07
2022-12-05T09:43:05.172Z,10.25
2022-12-05T09:46:25.172Z,11.10
2022-12-05T09:49:30.843Z,11.07
2022-12-05T09:52:38.841Z,10.82
2022-12-05T09:56:14.769Z,10.82
2022-12-05T09:59:20.570Z,11.82
2022-12-05T10:02:44.202Z,11.12
2022-12-05T10:06:06.935Z,11.82
2022-12-05T10:09:38.835Z,11.12
2022-12-05T10:12:54.858Z,10.63
2022-12-05T10:16:10.484Z,11.57
2022-12-05T10:19:21.109Z,10.85
2022-12-05T10:22:30.512Z,10.98
2022-12-05T10:25:34.725Z,11.70
2022-12-05T10:28:52.342Z,11.27
2022-12-05T10:32:05.479Z,12.10
2022-12-05T10:35:32.923Z,10.90
2022-12-05T10:38:36.202Z,11.65
2022-12-05T10:41:38.814Z,11.93
2022-12-05T10:44:42.428Z,12.25
2022-12-05T10:47:45.430Z,12.30
2022-12-05T10:50:52.314Z,12.18
2022-12-05T10:53:55.255Z,12.48
2022-12-05T11:00:13.455Z,12.77
2022-12-05T11:03:55.908Z,12.65
2022-12-05T11:07:04.625Z,12.15
2022-12-05T11:10:33.692Z,10.70
2022-12-05T11:13:36.234Z,11.68
2022-12-05T11:16:39.709Z,13.10
2022-12-05T11:19:42.305Z,12.25
2022-12-05T11:22:48.977Z,13.10
2022-12-05T11:25:52.451Z,12.00
2022-12-05T11:28:55.591Z,11.55
2022-12-05T11:31:58.859Z,11.90
2022-12-05T11:35:12.074Z,13.10
2022-12-05T11:38:17.324Z,12.93
2022-12-05T11:42:10.304Z,13.35
2022-12-05T11:45:26.101Z,12.10
2022-12-05T11:48:53.110Z,12.85
2022-12-05T11:51:55.611Z,12.88
2022-12-05T11:55:14.999Z,12.27
2022-12-05T11:59:02.726Z,13.32
2022-12-05T12:02:45.062Z,13.13
2022-12-05T12:06:12.373Z,14.57
2022-12-05T12:09:21.142Z,15.80
2022-12-05T12:12:52.127Z,17.45
2022-12-05T12:16:18.392Z,16.83
2022-12-05T12:19:45.497Z,17.08
2022-12-05T12:22:56.450Z,17.02
2022-12-05T12:26:05.038Z,17.40
2022-12-05T12:29:31.467Z,17.25
2022-12-05T12:33:05.609Z,15.90
2022-12-05T12:36:23.613Z,17.58
2022-12-05T12:39:26.297Z,16.77
2022-12-05T12:43:04.431Z,17.62
2022-12-05T12:46:30.071Z,17.70
2022-12-05T12:49:42.157Z,18.45
2022-12-05T12:53:08.886Z,17.45
2022-12-05T12:56:39.662Z,18.37
2022-12-05T13:00:22.050Z,19.87
2022-12-05T13:03:30.102Z,21.05
2022-12-05T13:06:58.113Z,20.35
2022-12-05T13:10:12.849Z,22.25
2022-12-05T13:13:27.606Z,21.37
2022-12-05T13:16:38.865Z,19.98
2022-12-05T13:19:49.403Z,17.25
2022-12-05T13:22:54.614Z,18.40
2022-12-05T13:26:00.380Z,18.02
2022-12-05T13:29:04.704Z,17.37
2022-12-05T13:32:32.298Z,16.92
2022-12-05T13:35:56.421Z,16.62
2022-12-05T13:39:39.393Z,18.37
2022-12-05T13:42:43.449Z,16.40
2022-12-05T13:45:57.928Z,18.62
2022-12-05T13:49:07.149Z,18.00
2022-12-05T13:52:19.950Z,16.48
2022-12-05T13:55:36.704Z,17.85
2022-12-05T13:58:54.727Z,16.55
2022-12-05T14:01:57.726Z,16.90
2022-12-05T14:05:00.629Z,17.67
2022-12-05T14:08:32.511Z,16.20
2022-12-05T14:11:35.352Z,16.45
2022-12-05T14:14:57.032Z,15.82
2022-12-05T14:17:59.743Z,15.48
2022-12-05T14:21:17.862Z,13.55
2022-12-05T14:24:49.375Z,17.17
2022-12-05T14:28:02.213Z,16.90
2022-12-05T14:31:14.149Z,16.90
2022-12-05T14:34:20.882Z,17.17
2022-12-05T14:37:29.310Z,16.50
2022-12-05T14:40:41.076Z,14.73
2022-12-05T14:43:44.329Z,16.10
2022-12-05T14:46:47.159Z,20.17
2022-12-05T14:49:52.857Z,14.90
2022-12-05T14:53:49.858Z,16.87
2022-12-05T14:57:09.790Z,15.65
2022-12-05T15:00:21.450Z,17.87
2022-12-05T15:03:31.317Z,16.48
2022-12-05T15:07:05.848Z,17.08
2022-12-05T15:10:17.429Z,17.27
2022-12-05T15:13:25.183Z,19.92
2022-12-05T15:16:30.359Z,19.45
2022-12-05T15:19:49.487Z,17.30
2022-12-05T15:22:52.280Z,16.33
2022-12-05T15:25:57.437Z,16.60
2022-12-05T15:29:07.916Z,16.60
2022-12-05T15:32:10.621Z,16.02
2022-12-05T15:35:15.519Z,16.95
2022-12-05T15:38:29.367Z,16.67
2022-12-05T15:41:33.066Z,15.75
2022-12-05T15:44:38.187Z,14.38
2022-12-05T15:47:59.879Z,15.00
2022-12-05T15:51:03.550Z,15.52
2022-12-05T15:54:14.318Z,14.85
2022-12-05T15:57:27.563Z,15.27
2022-12-05T16:00:33.945Z,16.20
2022-12-05T16:03:45.373Z,15.63
2022-12-05T16:06:57.526Z,14.95
2022-12-05T16:10:02.421Z,14.80
2022-12-05T16:13:11.099Z,14.63
2022-12-05T16:16:20.788Z,14.23
2022-12-05T16:19:24.628Z,14.73
2022-12-05T16:22:29.116Z,14.52
2022-12-05T16:25:36.972Z,14.43
2022-12-05T16:28:40.159Z,14.00
2022-12-05T16:31:44.000Z,13.45
2022-12-05T16:34:47.856Z,13.32
2022-12-05T16:37:50.435Z,13.40
2022-12-05T16:40:56.998Z,14.27
2022-12-05T16:43:59.576Z,14.45
2022-12-05T16:47:02.773Z,13.50
2022-12-05T16:50:26.272Z,13.37
2022-12-05T16:53:32.239Z,13.00
2022-12-05T16:56:35.156Z,12.40
2022-12-05T16:59:39.656Z,12.35
2022-12-05T17:02:43.557Z,12.10
2022-12-05T17:05:46.992Z,13.10
2022-12-05T17:08:50.240Z,11.82
2022-12-05T17:12:01.617Z,11.15
2022-12-05T17:15:04.440Z,11.98
2022-12-05T17:21:24.345Z,12.45
2022-12-05T17:24:28.675Z,12.27
2022-12-05T17:27:31.279Z,12.13
2022-12-05T17:30:34.561Z,11.85
2022-12-05T17:33:37.237Z,10.95
2022-12-05T17:36:40.221Z,12.27
2022-12-05T17:39:42.755Z,11.67
2022-12-05T17:42:45.824Z,10.93
2022-12-05T17:45:49.908Z,12.65
2022-12-05T17:48:53.677Z,12.00
2022-12-05T17:52:20.907Z,12.75
2022-12-05T17:55:27.251Z,12.90
2022-12-05T17:58:29.778Z,12.40
2022-12-05T18:01:32.883Z,13.98
2022-12-05T18:04:36.758Z,12.75
2022-12-05T18:07:41.047Z,12.37
2022-12-05T18:10:47.228Z,12.60
2022-12-05T18:13:50.682Z,12.85
2022-12-05T18:19:56.725Z,12.07
2022-12-05T18:22:59.638Z,11.77
2022-12-05T18:26:02.966Z,11.12
2022-12-05T18:32:08.617Z,13.07
2022-12-05T18:35:13.097Z,12.37
2022-12-05T18:38:16.171Z,12.70
2022-12-05T18:41:20.011Z,12.90
2022-12-05T18:44:22.792Z,12.80
2022-12-05T18:47:25.756Z,12.90
2022-12-05T18:50:31.080Z,13.07
2022-12-05T18:53:34.261Z,11.52
2022-12-05T18:56:40.061Z,11.77
2022-12-05T18:59:42.914Z,11.45
2022-12-05T19:02:48.693Z,11.15
2022-12-05T19:05:51.496Z,11.32
2022-12-05T19:08:56.511Z,10.98
2022-12-05T19:12:00.808Z,11.38
2022-12-05T19:15:04.003Z,11.30
2022-12-05T19:18:06.867Z,11.25
2022-12-05T19:21:09.850Z,11.10
2022-12-05T19:24:15.534Z,10.82
2022-12-05T19:27:18.293Z,11.90
2022-12-05T19:30:21.496Z,9.85
2022-12-05T19:33:24.243Z,11.15
2022-12-05T19:36:30.143Z,10.00
2022-12-05T19:39:33.084Z,11.52
2022-12-05T19:42:36.969Z,11.60
2022-12-05T19:45:39.884Z,11.77
2022-12-05T19:48:42.828Z,11.98
2022-12-05T19:51:46.358Z,12.37
2022-12-05T19:57:51.735Z,10.93
2022-12-05T20:00:54.554Z,12.30
2022-12-05T20:04:01.338Z,12.88
2022-12-05T20:07:03.956Z,14.40
2022-12-05T20:10:07.250Z,13.65
2022-12-05T20:13:44.697Z,14.10
2022-12-05T20:16:33.810Z,15.50
2022-12-05T20:19:36.540Z,15.25
2022-12-05T20:22:39.621Z,15.70
2022-12-05T20:25:42.158Z,16.73
2022-12-05T20:31:52.189Z,17.58
2022-12-05T20:34:55.663Z,17.15
2022-12-05T20:37:58.301Z,18.02
2022-12-05T20:41:06.490Z,16.80
2022-12-05T20:44:13.215Z,17.83
2022-12-05T20:47:16.303Z,18.73
2022-12-05T20:50:18.824Z,21.23
2022-12-05T20:53:22.226Z,22.60
2022-12-05T20:56:28.394Z,21.08
2022-12-05T20:59:31.568Z,21.02
2022-12-05T21:02:34.241Z,20.77
2022-12-05T21:05:37.496Z,20.48
2022-12-05T21:08:40.557Z,20.95
2022-12-05T21:11:45.262Z,20.25
2022-12-05T21:14:47.888Z,21.55
2022-12-05T21:17:51.150Z,21.62
2022-12-05T21:20:59.502Z,21.65
2022-12-05T21:24:04.742Z,22.65
2022-12-05T21:27:07.487Z,20.33
2022-12-05T21:30:11.755Z,21.23
2022-12-05T21:33:14.326Z,20.73
2022-12-05T21:36:18.488Z,21.05
2022-12-05T21:39:21.016Z,21.23
2022-12-05T21:42:24.189Z,16.35
2022-12-05T21:45:27.298Z,20.50
2022-12-05T21:48:30.828Z,20.25
2022-12-05T21:51:33.326Z,21.92
2022-12-05T21:54:37.257Z,20.30
2022-12-05T22:00:43.125Z,19.80
2022-12-05T22:06:49.374Z,19.83
2022-12-05T22:09:52.347Z,20.55
2022-12-05T22:12:56.491Z,20.40
2022-12-05T22:16:00.170Z,19.67
2022-12-05T22:19:03.901Z,19.00
2022-12-05T22:22:06.787Z,19.48
2022-12-05T22:25:09.930Z,18.73
2022-12-05T22:28:13.340Z,18.55
2022-12-05T22:31:17.200Z,18.05
2022-12-05T22:34:20.006Z,18.10
2022-12-05T22:37:22.893Z,16.60
2022-12-05T22:40:25.651Z,16.23
2022-12-05T22:43:30.025Z,15.70
2022-12-05T22:46:32.923Z,16.10
2022-12-05T22:49:35.715Z,14.63
2022-12-05T22:52:38.498Z,13.52
2022-12-05T22:55:41.342Z,12.85
2022-12-05T22:58:46.329Z,12.75
2022-12-05T23:01:49.150Z,12.50
2022-12-05T23:04:52.122Z,13.02
2022-12-05T23:07:55.017Z,13.32
2022-12-05T23:14:02.887Z,11.57
2022-12-05T23:17:05.747Z,11.63
2022-12-05T23:20:08.926Z,11.40
2022-12-05T23:23:11.628Z,11.38
2022-12-05T23:26:15.484Z,12.07
2022-12-05T23:29:18.125Z,12.65
2022-12-05T23:32:20.791Z,12.82
2022-12-05T23:35:23.410Z,13.38
2022-12-05T23:38:26.046Z,14.23
2022-12-05T23:41:28.928Z,14.60
2022-12-05T23:44:31.682Z,13.85
2022-12-05T23:47:34.659Z,14.23
2022-12-05T23:50:40.142Z,14.00
2022-12-05T23:53:44.734Z,14.63
2022-12-05T23:56:47.374Z,14.35
2022-12-05T23:59:49.990Z,14.90
